Ege, Indiana
Current Conditions -  °F | °C
As of 8:15 PM on Saturday 22 Nov 2014 (Local Time) from KGWB Reporting Station
Overcast Overcast  
Wind Chill: 50°   Ceiling: 3400
Heat Index: 50°   Visibility: 10mi
Dew Point: 41°   Wind: 7mph
Humidity: 71%   Direction: 210°SSW
Pressure: 29.98"   Gusts: NA
Location:  41.3048°N, 85.2502°W
Report Text: KGWB 230115Z AUTO 21006KT 10SM OVC034 10/05 A2998 RMK AO2
Loading
Personal Weather Stations






























Interactive Weather Map New forecast layout! Learn more

10-Day Weather Forecast

Advertisements
Track Severe Weather on mobile